Nearby METAR Reports

 

CXKE - Kemptville, Ontario, Canada
Distance from station: ESE 39km
Updated: 23/09/2018 17:00

 Wind from NNE
Wind: NNE 7 km/h
Temperature: 16°C
Dew Point: 7°C
Humidity: 55%
2018/09/23 21:00 CXKE 232100Z AUTO 02004KT 16/07 RMK AO1 SLP249 T01620071 53002
CYOW - Ottawa Intl, Ontario, Canada
Distance from station: NE 43km
Updated: 23/09/2018 17:00
Mostly Cloudy
Mostly Cloudy
 Wind from N
Wind: N 24 km/h
Temperature: 14°C
Dew Point: 8°C
Humidity: 67%
Barometer: 1025.7 hPa
Clouds: Mostly Cloudy
Visibility: 24 km
Cloud details: Partly Cloudy 1067 m
Mostly Cloudy 2316 m
Mostly Cloudy 3658 m
2018/09/23 21:00 CYOW 232100Z 35013KT 15SM SCT035 BKN076 BKN120 14/08 A3029 RMK CU3AC3AC1 SLP260
 
CYND - Gatineau Airport, Quebec, Canada
Distance from station: NE 64km
Updated: 23/09/2018 17:00
Mostly Cloudy
Mostly Cloudy
 Wind from NNW
Wind: NNW 22 km/h
Temperature: 11°C
Dew Point: 6°C
Humidity: 72%
Barometer: 1026.1 hPa
Clouds: Mostly Cloudy
Visibility: 24 km
Cloud details: Few Clouds 1219 m
Mostly Cloudy 2377 m
2018/09/23 21:00 CYND 232100Z 34012KT 15SM FEW040 BKN078 11/06 A3030 RMK SC1AC6 SLP264
CYGK - Kingston, Ontario, CA
Distance from station: S 80km
Updated: 23/09/2018 17:00
Mostly Cloudy
Mostly Cloudy
 Wind from S
Wind: S 15 km/h
Temperature: 16°C
Dew Point: 11°C
Humidity: 72%
Barometer: 1024 hPa
Clouds: Mostly Cloudy
Visibility: 24 km
Cloud details: Few Clouds 1036 m
Partly Cloudy 4267 m
Mostly Cloudy 7620 m
2018/09/23 21:00 CYGK 232100Z 18008KT 15SM FEW034 SCT140 BKN250 16/11 A3024 RMK CU1AC3CI2 SLP245